sensor_id;sensor_type;location;lat;lon;timestamp;P1;durP1;ratioP1;P2;durP2;ratioP2
41057;SDS011;66768;48.884;2.258;2023-03-17T00:00:10;0.50;;;0.50;;
41057;SDS011;66768;48.884;2.258;2023-03-17T00:02:40;0.50;;;0.50;;
41057;SDS011;66768;48.884;2.258;2023-03-17T00:05:13;0.40;;;0.40;;
41057;SDS011;66768;48.884;2.258;2023-03-17T00:07:46;0.35;;;0.35;;
41057;SDS011;66768;48.884;2.258;2023-03-17T00:10:15;0.50;;;0.50;;
41057;SDS011;66768;48.884;2.258;2023-03-17T00:12:44;0.40;;;0.40;;
41057;SDS011;66768;48.884;2.258;2023-03-17T00:15:11;0.50;;;0.50;;
41057;SDS011;66768;48.884;2.258;2023-03-17T00:17:41;0.40;;;0.40;;
41057;SDS011;66768;48.884;2.258;2023-03-17T00:20:13;0.47;;;0.47;;
41057;SDS011;66768;48.884;2.258;2023-03-17T00:22:48;0.43;;;0.43;;
41057;SDS011;66768;48.884;2.258;2023-03-17T00:25:19;0.47;;;0.47;;
41057;SDS011;66768;48.884;2.258;2023-03-17T00:27:49;0.50;;;0.50;;
41057;SDS011;66768;48.884;2.258;2023-03-17T00:30:16;0.50;;;0.50;;
41057;SDS011;66768;48.884;2.258;2023-03-17T00:32:44;0.40;;;0.40;;
41057;SDS011;66768;48.884;2.258;2023-03-17T00:35:19;0.50;;;0.50;;
41057;SDS011;66768;48.884;2.258;2023-03-17T00:37:48;0.50;;;0.50;;
41057;SDS011;66768;48.884;2.258;2023-03-17T00:40:17;0.40;;;0.40;;
41057;SDS011;66768;48.884;2.258;2023-03-17T00:42:46;0.50;;;0.50;;
41057;SDS011;66768;48.884;2.258;2023-03-17T00:45:13;0.50;;;0.50;;
41057;SDS011;66768;48.884;2.258;2023-03-17T00:47:41;0.35;;;0.35;;
41057;SDS011;66768;48.884;2.258;2023-03-17T00:50:11;0.35;;;0.35;;
41057;SDS011;66768;48.884;2.258;2023-03-17T00:52:41;0.40;;;0.40;;
41057;SDS011;66768;48.884;2.258;2023-03-17T00:55:08;0.40;;;0.40;;
41057;SDS011;66768;48.884;2.258;2023-03-17T00:57:36;0.43;;;0.43;;
41057;SDS011;66768;48.884;2.258;2023-03-17T01:00:06;0.50;;;0.50;;
41057;SDS011;66768;48.884;2.258;2023-03-17T01:02:42;0.43;;;0.43;;
41057;SDS011;66768;48.884;2.258;2023-03-17T01:05:11;0.40;;;0.40;;
41057;SDS011;66768;48.884;2.258;2023-03-17T01:07:38;0.47;;;0.47;;
41057;SDS011;66768;48.884;2.258;2023-03-17T01:10:10;0.40;;;0.40;;
41057;SDS011;66768;48.884;2.258;2023-03-17T01:12:40;0.40;;;0.40;;
41057;SDS011;66768;48.884;2.258;2023-03-17T01:15:07;0.40;;;0.40;;
41057;SDS011;66768;48.884;2.258;2023-03-17T01:17:35;0.40;;;0.40;;
41057;SDS011;66768;48.884;2.258;2023-03-17T01:20:04;0.35;;;0.35;;
41057;SDS011;66768;48.884;2.258;2023-03-17T01:22:32;0.32;;;0.32;;
41057;SDS011;66768;48.884;2.258;2023-03-17T01:25:00;0.40;;;0.40;;
41057;SDS011;66768;48.884;2.258;2023-03-17T01:27:32;0.50;;;0.50;;
41057;SDS011;66768;48.884;2.258;2023-03-17T01:30:00;0.40;;;0.40;;
41057;SDS011;66768;48.884;2.258;2023-03-17T01:32:27;0.40;;;0.40;;
41057;SDS011;66768;48.884;2.258;2023-03-17T01:34:54;0.60;;;0.60;;
41057;SDS011;66768;48.884;2.258;2023-03-17T01:37:22;0.50;;;0.50;;
41057;SDS011;66768;48.884;2.258;2023-03-17T01:39:51;0.60;;;0.60;;
41057;SDS011;66768;48.884;2.258;2023-03-17T01:42:18;0.50;;;0.50;;
41057;SDS011;66768;48.884;2.258;2023-03-17T01:44:58;0.40;;;0.40;;
41057;SDS011;66768;48.884;2.258;2023-03-17T01:47:27;0.50;;;0.50;;
41057;SDS011;66768;48.884;2.258;2023-03-17T01:49:56;0.50;;;0.50;;
41057;SDS011;66768;48.884;2.258;2023-03-17T01:52:25;0.50;;;0.50;;
41057;SDS011;66768;48.884;2.258;2023-03-17T01:54:55;0.50;;;0.50;;
41057;SDS011;66768;48.884;2.258;2023-03-17T01:57:25;0.40;;;0.40;;
41057;SDS011;66768;48.884;2.258;2023-03-17T01:59:56;0.40;;;0.40;;
41057;SDS011;66768;48.884;2.258;2023-03-17T02:02:30;0.40;;;0.40;;
41057;SDS011;66768;48.884;2.258;2023-03-17T02:04:59;0.30;;;0.30;;
41057;SDS011;66768;48.884;2.258;2023-03-17T02:07:27;0.45;;;0.45;;
41057;SDS011;66768;48.884;2.258;2023-03-17T02:09:56;0.40;;;0.40;;
41057;SDS011;66768;48.884;2.258;2023-03-17T02:12:24;0.50;;;0.50;;
41057;SDS011;66768;48.884;2.258;2023-03-17T02:14:54;0.40;;;0.40;;
41057;SDS011;66768;48.884;2.258;2023-03-17T02:17:23;0.40;;;0.40;;
41057;SDS011;66768;48.884;2.258;2023-03-17T02:19:51;0.40;;;0.40;;
41057;SDS011;66768;48.884;2.258;2023-03-17T02:22:19;0.43;;;0.43;;
41057;SDS011;66768;48.884;2.258;2023-03-17T02:24:47;0.40;;;0.40;;
41057;SDS011;66768;48.884;2.258;2023-03-17T02:27:17;0.40;;;0.40;;
41057;SDS011;66768;48.884;2.258;2023-03-17T02:29:48;0.40;;;0.40;;
41057;SDS011;66768;48.884;2.258;2023-03-17T02:32:16;0.50;;;0.50;;
41057;SDS011;66768;48.884;2.258;2023-03-17T02:34:46;0.40;;;0.40;;
41057;SDS011;66768;48.884;2.258;2023-03-17T02:37:13;0.30;;;0.30;;
41057;SDS011;66768;48.884;2.258;2023-03-17T02:39:43;0.50;;;0.50;;
41057;SDS011;66768;48.884;2.258;2023-03-17T02:42:11;0.50;;;0.50;;
41057;SDS011;66768;48.884;2.258;2023-03-17T02:44:39;0.40;;;0.40;;
41057;SDS011;66768;48.884;2.258;2023-03-17T02:47:06;0.50;;;0.50;;
41057;SDS011;66768;48.884;2.258;2023-03-17T02:49:33;0.40;;;0.40;;
41057;SDS011;66768;48.884;2.258;2023-03-17T02:52:01;0.47;;;0.47;;
41057;SDS011;66768;48.884;2.258;2023-03-17T02:54:28;0.50;;;0.50;;
41057;SDS011;66768;48.884;2.258;2023-03-17T02:56:56;0.30;;;0.30;;
41057;SDS011;66768;48.884;2.258;2023-03-17T02:59:23;0.47;;;0.47;;
41057;SDS011;66768;48.884;2.258;2023-03-17T03:01:50;0.50;;;0.50;;
41057;SDS011;66768;48.884;2.258;2023-03-17T03:04:18;0.40;;;0.40;;
41057;SDS011;66768;48.884;2.258;2023-03-17T03:06:45;0.40;;;0.40;;
41057;SDS011;66768;48.884;2.258;2023-03-17T03:09:13;0.50;;;0.50;;
41057;SDS011;66768;48.884;2.258;2023-03-17T03:11:42;0.40;;;0.40;;
41057;SDS011;66768;48.884;2.258;2023-03-17T03:14:10;0.30;;;0.30;;
41057;SDS011;66768;48.884;2.258;2023-03-17T03:16:37;0.50;;;0.50;;
41057;SDS011;66768;48.884;2.258;2023-03-17T03:19:04;0.30;;;0.30;;
41057;SDS011;66768;48.884;2.258;2023-03-17T03:21:32;0.47;;;0.47;;
41057;SDS011;66768;48.884;2.258;2023-03-17T03:23:58;0.40;;;0.40;;
41057;SDS011;66768;48.884;2.258;2023-03-17T03:26:25;0.40;;;0.40;;
41057;SDS011;66768;48.884;2.258;2023-03-17T03:28:52;0.40;;;0.40;;
41057;SDS011;66768;48.884;2.258;2023-03-17T03:31:22;0.40;;;0.40;;
41057;SDS011;66768;48.884;2.258;2023-03-17T03:33:50;0.40;;;0.40;;
41057;SDS011;66768;48.884;2.258;2023-03-17T03:36:17;0.60;;;0.60;;
41057;SDS011;66768;48.884;2.258;2023-03-17T03:38:44;0.50;;;0.50;;
41057;SDS011;66768;48.884;2.258;2023-03-17T03:41:11;0.38;;;0.38;;
41057;SDS011;66768;48.884;2.258;2023-03-17T03:43:38;0.40;;;0.40;;
41057;SDS011;66768;48.884;2.258;2023-03-17T03:46:05;0.43;;;0.43;;
41057;SDS011;66768;48.884;2.258;2023-03-17T03:48:33;0.40;;;0.40;;
41057;SDS011;66768;48.884;2.258;2023-03-17T03:51:01;0.35;;;0.35;;
41057;SDS011;66768;48.884;2.258;2023-03-17T03:53:28;0.45;;;0.45;;
41057;SDS011;66768;48.884;2.258;2023-03-17T03:55:55;0.50;;;0.50;;
41057;SDS011;66768;48.884;2.258;2023-03-17T03:58:22;0.40;;;0.40;;
41057;SDS011;66768;48.884;2.258;2023-03-17T04:00:48;0.40;;;0.40;;
41057;SDS011;66768;48.884;2.258;2023-03-17T04:03:16;0.50;;;0.50;;
41057;SDS011;66768;48.884;2.258;2023-03-17T04:05:45;0.40;;;0.40;;
41057;SDS011;66768;48.884;2.258;2023-03-17T04:08:11;0.50;;;0.50;;
41057;SDS011;66768;48.884;2.258;2023-03-17T04:10:38;0.35;;;0.35;;
41057;SDS011;66768;48.884;2.258;2023-03-17T04:13:05;0.40;;;0.40;;
41057;SDS011;66768;48.884;2.258;2023-03-17T04:15:32;0.47;;;0.47;;
41057;SDS011;66768;48.884;2.258;2023-03-17T04:17:59;0.40;;;0.40;;
41057;SDS011;66768;48.884;2.258;2023-03-17T04:20:26;0.40;;;0.40;;
41057;SDS011;66768;48.884;2.258;2023-03-17T04:22:54;0.32;;;0.32;;
41057;SDS011;66768;48.884;2.258;2023-03-17T04:25:21;0.52;;;0.52;;
41057;SDS011;66768;48.884;2.258;2023-03-17T04:27:48;0.50;;;0.50;;
41057;SDS011;66768;48.884;2.258;2023-03-17T04:30:15;0.50;;;0.50;;
41057;SDS011;66768;48.884;2.258;2023-03-17T04:32:42;0.50;;;0.50;;
41057;SDS011;66768;48.884;2.258;2023-03-17T04:35:11;0.60;;;0.60;;
41057;SDS011;66768;48.884;2.258;2023-03-17T04:37:39;0.40;;;0.40;;
41057;SDS011;66768;48.884;2.258;2023-03-17T04:40:08;0.40;;;0.40;;
41057;SDS011;66768;48.884;2.258;2023-03-17T04:42:36;0.30;;;0.30;;
41057;SDS011;66768;48.884;2.258;2023-03-17T04:45:03;0.40;;;0.40;;
41057;SDS011;66768;48.884;2.258;2023-03-17T04:47:31;0.45;;;0.45;;
41057;SDS011;66768;48.884;2.258;2023-03-17T04:49:58;0.50;;;0.50;;
41057;SDS011;66768;48.884;2.258;2023-03-17T04:52:25;0.50;;;0.50;;
41057;SDS011;66768;48.884;2.258;2023-03-17T04:54:52;0.50;;;0.50;;
41057;SDS011;66768;48.884;2.258;2023-03-17T04:57:20;0.50;;;0.50;;
41057;SDS011;66768;48.884;2.258;2023-03-17T04:59:48;0.40;;;0.40;;
41057;SDS011;66768;48.884;2.258;2023-03-17T05:02:15;0.50;;;0.50;;
41057;SDS011;66768;48.884;2.258;2023-03-17T05:04:43;0.32;;;0.32;;
41057;SDS011;66768;48.884;2.258;2023-03-17T05:07:10;0.47;;;0.47;;
41057;SDS011;66768;48.884;2.258;2023-03-17T05:09:37;0.50;;;0.50;;
41057;SDS011;66768;48.884;2.258;2023-03-17T05:12:04;0.50;;;0.50;;
41057;SDS011;66768;48.884;2.258;2023-03-17T05:14:34;0.40;;;0.40;;
41057;SDS011;66768;48.884;2.258;2023-03-17T05:17:00;0.52;;;0.52;;
41057;SDS011;66768;48.884;2.258;2023-03-17T05:19:27;0.43;;;0.43;;
41057;SDS011;66768;48.884;2.258;2023-03-17T05:21:54;0.50;;;0.50;;
41057;SDS011;66768;48.884;2.258;2023-03-17T05:24:21;0.50;;;0.50;;
41057;SDS011;66768;48.884;2.258;2023-03-17T05:26:48;0.30;;;0.30;;
41057;SDS011;66768;48.884;2.258;2023-03-17T05:29:15;0.50;;;0.50;;
41057;SDS011;66768;48.884;2.258;2023-03-17T05:31:43;0.50;;;0.50;;
41057;SDS011;66768;48.884;2.258;2023-03-17T05:34:11;0.40;;;0.40;;
41057;SDS011;66768;48.884;2.258;2023-03-17T05:36:39;0.40;;;0.40;;
41057;SDS011;66768;48.884;2.258;2023-03-17T05:39:06;0.40;;;0.40;;
41057;SDS011;66768;48.884;2.258;2023-03-17T05:41:33;0.40;;;0.40;;
41057;SDS011;66768;48.884;2.258;2023-03-17T05:44:00;0.40;;;0.40;;
41057;SDS011;66768;48.884;2.258;2023-03-17T05:46:27;0.30;;;0.30;;
41057;SDS011;66768;48.884;2.258;2023-03-17T05:48:55;0.50;;;0.50;;
41057;SDS011;66768;48.884;2.258;2023-03-17T05:51:22;0.50;;;0.50;;
41057;SDS011;66768;48.884;2.258;2023-03-17T05:53:48;0.40;;;0.40;;
41057;SDS011;66768;48.884;2.258;2023-03-17T05:56:15;0.40;;;0.40;;
41057;SDS011;66768;48.884;2.258;2023-03-17T05:58:42;0.45;;;0.45;;
41057;SDS011;66768;48.884;2.258;2023-03-17T06:01:09;0.40;;;0.40;;
41057;SDS011;66768;48.884;2.258;2023-03-17T06:03:36;0.57;;;0.57;;
41057;SDS011;66768;48.884;2.258;2023-03-17T06:06:05;0.50;;;0.50;;
41057;SDS011;66768;48.884;2.258;2023-03-17T06:08:33;0.40;;;0.40;;
41057;SDS011;66768;48.884;2.258;2023-03-17T06:11:00;0.50;;;0.50;;
41057;SDS011;66768;48.884;2.258;2023-03-17T06:13:27;0.40;;;0.40;;
41057;SDS011;66768;48.884;2.258;2023-03-17T06:15:53;0.50;;;0.50;;
41057;SDS011;66768;48.884;2.258;2023-03-17T06:18:21;0.50;;;0.50;;
41057;SDS011;66768;48.884;2.258;2023-03-17T06:20:48;0.45;;;0.45;;
41057;SDS011;66768;48.884;2.258;2023-03-17T06:23:17;0.40;;;0.40;;
41057;SDS011;66768;48.884;2.258;2023-03-17T06:25:44;0.55;;;0.55;;
41057;SDS011;66768;48.884;2.258;2023-03-17T06:28:11;0.40;;;0.40;;
41057;SDS011;66768;48.884;2.258;2023-03-17T06:30:38;0.43;;;0.43;;
41057;SDS011;66768;48.884;2.258;2023-03-17T06:33:05;0.50;;;0.50;;
41057;SDS011;66768;48.884;2.258;2023-03-17T06:35:32;0.50;;;0.50;;
41057;SDS011;66768;48.884;2.258;2023-03-17T06:37:59;0.50;;;0.50;;
41057;SDS011;66768;48.884;2.258;2023-03-17T06:40:28;0.40;;;0.40;;
41057;SDS011;66768;48.884;2.258;2023-03-17T06:42:56;0.50;;;0.50;;
41057;SDS011;66768;48.884;2.258;2023-03-17T06:45:23;0.50;;;0.50;;
41057;SDS011;66768;48.884;2.258;2023-03-17T06:47:50;0.55;;;0.55;;
41057;SDS011;66768;48.884;2.258;2023-03-17T06:50:16;0.40;;;0.40;;
41057;SDS011;66768;48.884;2.258;2023-03-17T06:52:44;0.50;;;0.50;;
41057;SDS011;66768;48.884;2.258;2023-03-17T06:55:11;0.52;;;0.52;;
41057;SDS011;66768;48.884;2.258;2023-03-17T06:57:39;0.45;;;0.45;;
41057;SDS011;66768;48.884;2.258;2023-03-17T07:00:07;0.40;;;0.40;;
41057;SDS011;66768;48.884;2.258;2023-03-17T07:02:36;0.40;;;0.40;;
41057;SDS011;66768;48.884;2.258;2023-03-17T07:05:03;0.40;;;0.40;;
41057;SDS011;66768;48.884;2.258;2023-03-17T07:07:32;0.40;;;0.40;;
41057;SDS011;66768;48.884;2.258;2023-03-17T07:09:59;0.40;;;0.40;;
41057;SDS011;66768;48.884;2.258;2023-03-17T07:12:26;0.60;;;0.60;;
41057;SDS011;66768;48.884;2.258;2023-03-17T07:14:55;0.40;;;0.40;;
41057;SDS011;66768;48.884;2.258;2023-03-17T07:17:22;0.43;;;0.43;;
41057;SDS011;66768;48.884;2.258;2023-03-17T07:19:49;0.40;;;0.40;;
41057;SDS011;66768;48.884;2.258;2023-03-17T07:22:16;0.40;;;0.40;;
41057;SDS011;66768;48.884;2.258;2023-03-17T07:24:43;0.40;;;0.40;;
41057;SDS011;66768;48.884;2.258;2023-03-17T07:27:11;0.40;;;0.40;;
41057;SDS011;66768;48.884;2.258;2023-03-17T07:29:38;0.45;;;0.45;;
41057;SDS011;66768;48.884;2.258;2023-03-17T07:32:07;0.47;;;0.47;;
41057;SDS011;66768;48.884;2.258;2023-03-17T07:34:34;0.50;;;0.50;;
41057;SDS011;66768;48.884;2.258;2023-03-17T07:37:01;0.40;;;0.40;;
41057;SDS011;66768;48.884;2.258;2023-03-17T07:39:29;0.45;;;0.45;;
41057;SDS011;66768;48.884;2.258;2023-03-17T07:41:56;0.30;;;0.30;;
41057;SDS011;66768;48.884;2.258;2023-03-17T07:44:24;0.40;;;0.40;;
41057;SDS011;66768;48.884;2.258;2023-03-17T07:46:51;0.55;;;0.55;;
41057;SDS011;66768;48.884;2.258;2023-03-17T07:49:20;0.43;;;0.43;;
41057;SDS011;66768;48.884;2.258;2023-03-17T07:51:47;0.52;;;0.52;;
41057;SDS011;66768;48.884;2.258;2023-03-17T07:54:14;0.40;;;0.40;;
41057;SDS011;66768;48.884;2.258;2023-03-17T07:56:41;0.57;;;0.57;;
41057;SDS011;66768;48.884;2.258;2023-03-17T07:59:08;0.50;;;0.50;;
41057;SDS011;66768;48.884;2.258;2023-03-17T08:01:36;0.50;;;0.50;;
41057;SDS011;66768;48.884;2.258;2023-03-17T08:04:04;0.40;;;0.40;;
41057;SDS011;66768;48.884;2.258;2023-03-17T08:06:32;0.30;;;0.30;;
41057;SDS011;66768;48.884;2.258;2023-03-17T08:09:00;0.30;;;0.30;;
41057;SDS011;66768;48.884;2.258;2023-03-17T08:11:26;0.50;;;0.50;;
41057;SDS011;66768;48.884;2.258;2023-03-17T08:13:53;0.40;;;0.40;;
41057;SDS011;66768;48.884;2.258;2023-03-17T08:16:20;0.50;;;0.50;;
41057;SDS011;66768;48.884;2.258;2023-03-17T08:18:47;0.40;;;0.40;;
41057;SDS011;66768;48.884;2.258;2023-03-17T08:21:14;0.50;;;0.50;;
41057;SDS011;66768;48.884;2.258;2023-03-17T08:23:43;0.30;;;0.30;;
41057;SDS011;66768;48.884;2.258;2023-03-17T08:26:11;0.40;;;0.40;;
41057;SDS011;66768;48.884;2.258;2023-03-17T08:28:39;0.50;;;0.50;;
41057;SDS011;66768;48.884;2.258;2023-03-17T08:31:07;0.43;;;0.43;;
41057;SDS011;66768;48.884;2.258;2023-03-17T08:33:36;0.30;;;0.30;;
41057;SDS011;66768;48.884;2.258;2023-03-17T08:36:04;0.40;;;0.40;;
41057;SDS011;66768;48.884;2.258;2023-03-17T08:38:33;0.38;;;0.38;;
41057;SDS011;66768;48.884;2.258;2023-03-17T08:41:02;0.50;;;0.50;;
41057;SDS011;66768;48.884;2.258;2023-03-17T08:43:30;0.50;;;0.50;;
41057;SDS011;66768;48.884;2.258;2023-03-17T08:45:59;0.40;;;0.40;;
41057;SDS011;66768;48.884;2.258;2023-03-17T08:48:28;0.40;;;0.40;;
41057;SDS011;66768;48.884;2.258;2023-03-17T08:50:55;0.50;;;0.50;;
41057;SDS011;66768;48.884;2.258;2023-03-17T08:53:23;0.40;;;0.40;;
41057;SDS011;66768;48.884;2.258;2023-03-17T08:55:52;0.28;;;0.28;;
41057;SDS011;66768;48.884;2.258;2023-03-17T08:58:21;0.45;;;0.45;;
41057;SDS011;66768;48.884;2.258;2023-03-17T09:00:48;0.30;;;0.30;;
41057;SDS011;66768;48.884;2.258;2023-03-17T09:03:16;0.55;;;0.55;;
41057;SDS011;66768;48.884;2.258;2023-03-17T09:05:44;0.40;;;0.40;;
41057;SDS011;66768;48.884;2.258;2023-03-17T09:08:12;0.40;;;0.40;;
41057;SDS011;66768;48.884;2.258;2023-03-17T09:10:39;0.35;;;0.35;;
41057;SDS011;66768;48.884;2.258;2023-03-17T09:13:06;0.35;;;0.35;;
41057;SDS011;66768;48.884;2.258;2023-03-17T09:15:35;0.32;;;0.32;;
41057;SDS011;66768;48.884;2.258;2023-03-17T09:18:03;0.30;;;0.30;;
41057;SDS011;66768;48.884;2.258;2023-03-17T09:20:30;0.40;;;0.40;;
41057;SDS011;66768;48.884;2.258;2023-03-17T09:22:57;0.38;;;0.38;;
41057;SDS011;66768;48.884;2.258;2023-03-17T09:25:24;0.30;;;0.30;;
41057;SDS011;66768;48.884;2.258;2023-03-17T09:27:51;0.40;;;0.40;;
41057;SDS011;66768;48.884;2.258;2023-03-17T09:30:18;0.35;;;0.35;;
41057;SDS011;66768;48.884;2.258;2023-03-17T09:32:47;0.30;;;0.30;;
41057;SDS011;66768;48.884;2.258;2023-03-17T09:35:14;0.30;;;0.30;;
41057;SDS011;66768;48.884;2.258;2023-03-17T09:37:41;0.30;;;0.30;;
41057;SDS011;66768;48.884;2.258;2023-03-17T09:40:09;0.30;;;0.30;;
41057;SDS011;66768;48.884;2.258;2023-03-17T09:42:42;0.30;;;0.30;;
41057;SDS011;66768;48.884;2.258;2023-03-17T09:45:20;0.30;;;0.30;;
41057;SDS011;66768;48.884;2.258;2023-03-17T09:47:58;0.30;;;0.30;;
41057;SDS011;66768;48.884;2.258;2023-03-17T09:50:35;0.40;;;0.40;;
41057;SDS011;66768;48.884;2.258;2023-03-17T09:53:11;0.38;;;0.38;;
41057;SDS011;66768;48.884;2.258;2023-03-17T09:55:43;0.30;;;0.30;;
41057;SDS011;66768;48.884;2.258;2023-03-17T09:58:12;0.30;;;0.30;;
41057;SDS011;66768;48.884;2.258;2023-03-17T10:00:39;0.25;;;0.25;;
41057;SDS011;66768;48.884;2.258;2023-03-17T10:03:09;0.30;;;0.30;;
41057;SDS011;66768;48.884;2.258;2023-03-17T10:05:37;0.20;;;0.20;;
41057;SDS011;66768;48.884;2.258;2023-03-17T10:08:05;0.28;;;0.28;;
41057;SDS011;66768;48.884;2.258;2023-03-17T10:10:39;0.30;;;0.30;;
41057;SDS011;66768;48.884;2.258;2023-03-17T10:13:13;0.30;;;0.30;;
41057;SDS011;66768;48.884;2.258;2023-03-17T10:15:48;0.40;;;0.40;;
41057;SDS011;66768;48.884;2.258;2023-03-17T10:18:22;0.32;;;0.32;;
41057;SDS011;66768;48.884;2.258;2023-03-17T10:20:52;0.30;;;0.30;;
41057;SDS011;66768;48.884;2.258;2023-03-17T10:23:24;0.28;;;0.28;;
41057;SDS011;66768;48.884;2.258;2023-03-17T10:25:55;0.30;;;0.30;;
41057;SDS011;66768;48.884;2.258;2023-03-17T10:28:26;0.30;;;0.30;;
41057;SDS011;66768;48.884;2.258;2023-03-17T10:30:56;0.30;;;0.30;;
41057;SDS011;66768;48.884;2.258;2023-03-17T10:33:33;0.30;;;0.30;;
41057;SDS011;66768;48.884;2.258;2023-03-17T10:36:05;0.30;;;0.30;;
41057;SDS011;66768;48.884;2.258;2023-03-17T10:38:33;0.30;;;0.30;;
41057;SDS011;66768;48.884;2.258;2023-03-17T10:41:05;0.30;;;0.30;;
41057;SDS011;66768;48.884;2.258;2023-03-17T10:43:40;0.40;;;0.40;;
41057;SDS011;66768;48.884;2.258;2023-03-17T10:46:15;0.30;;;0.30;;
41057;SDS011;66768;48.884;2.258;2023-03-17T10:51:19;0.20;;;0.20;;
41057;SDS011;66768;48.884;2.258;2023-03-17T10:53:51;0.20;;;0.20;;
41057;SDS011;66768;48.884;2.258;2023-03-17T10:56:21;0.30;;;0.30;;
41057;SDS011;66768;48.884;2.258;2023-03-17T10:58:51;0.25;;;0.25;;
41057;SDS011;66768;48.884;2.258;2023-03-17T11:01:21;0.30;;;0.30;;
41057;SDS011;66768;48.884;2.258;2023-03-17T11:03:55;0.30;;;0.30;;
41057;SDS011;66768;48.884;2.258;2023-03-17T11:06:30;0.30;;;0.30;;
41057;SDS011;66768;48.884;2.258;2023-03-17T11:09:04;0.30;;;0.30;;
41057;SDS011;66768;48.884;2.258;2023-03-17T11:11:41;0.30;;;0.30;;
41057;SDS011;66768;48.884;2.258;2023-03-17T11:14:11;0.30;;;0.30;;
41057;SDS011;66768;48.884;2.258;2023-03-17T11:16:39;0.28;;;0.28;;
41057;SDS011;66768;48.884;2.258;2023-03-17T11:19:18;0.20;;;0.20;;
41057;SDS011;66768;48.884;2.258;2023-03-17T11:21:53;0.20;;;0.20;;
41057;SDS011;66768;48.884;2.258;2023-03-17T11:24:27;0.20;;;0.20;;
41057;SDS011;66768;48.884;2.258;2023-03-17T11:26:57;0.30;;;0.30;;
41057;SDS011;66768;48.884;2.258;2023-03-17T11:29:28;0.30;;;0.30;;
41057;SDS011;66768;48.884;2.258;2023-03-17T11:32:10;0.32;;;0.32;;
41057;SDS011;66768;48.884;2.258;2023-03-17T11:34:50;0.20;;;0.20;;
41057;SDS011;66768;48.884;2.258;2023-03-17T11:37:44;0.22;;;0.22;;
41057;SDS011;66768;48.884;2.258;2023-03-17T11:40:24;0.30;;;0.30;;
41057;SDS011;66768;48.884;2.258;2023-03-17T11:43:00;0.30;;;0.30;;
41057;SDS011;66768;48.884;2.258;2023-03-17T11:45:37;0.30;;;0.30;;
41057;SDS011;66768;48.884;2.258;2023-03-17T11:48:16;0.30;;;0.30;;
41057;SDS011;66768;48.884;2.258;2023-03-17T11:50:54;0.30;;;0.30;;
41057;SDS011;66768;48.884;2.258;2023-03-17T11:53:32;0.30;;;0.30;;
41057;SDS011;66768;48.884;2.258;2023-03-17T11:56:13;0.25;;;0.25;;
41057;SDS011;66768;48.884;2.258;2023-03-17T11:58:45;0.20;;;0.20;;
41057;SDS011;66768;48.884;2.258;2023-03-17T12:01:18;0.30;;;0.30;;
41057;SDS011;66768;48.884;2.258;2023-03-17T12:03:52;0.30;;;0.30;;
41057;SDS011;66768;48.884;2.258;2023-03-17T12:06:29;0.30;;;0.30;;
41057;SDS011;66768;48.884;2.258;2023-03-17T12:08:59;0.20;;;0.20;;
41057;SDS011;66768;48.884;2.258;2023-03-17T12:11:36;0.20;;;0.20;;
41057;SDS011;66768;48.884;2.258;2023-03-17T12:14:13;0.22;;;0.22;;
41057;SDS011;66768;48.884;2.258;2023-03-17T12:16:49;0.20;;;0.20;;
41057;SDS011;66768;48.884;2.258;2023-03-17T12:19:20;0.30;;;0.30;;
41057;SDS011;66768;48.884;2.258;2023-03-17T12:21:54;0.30;;;0.30;;
41057;SDS011;66768;48.884;2.258;2023-03-17T12:24:25;0.30;;;0.30;;
41057;SDS011;66768;48.884;2.258;2023-03-17T12:26:58;0.30;;;0.30;;
41057;SDS011;66768;48.884;2.258;2023-03-17T12:29:33;0.30;;;0.30;;
41057;SDS011;66768;48.884;2.258;2023-03-17T12:32:09;0.30;;;0.30;;
41057;SDS011;66768;48.884;2.258;2023-03-17T12:34:42;0.30;;;0.30;;
41057;SDS011;66768;48.884;2.258;2023-03-17T12:37:16;0.30;;;0.30;;
41057;SDS011;66768;48.884;2.258;2023-03-17T12:39:46;0.30;;;0.30;;
41057;SDS011;66768;48.884;2.258;2023-03-17T12:42:25;0.30;;;0.30;;
41057;SDS011;66768;48.884;2.258;2023-03-17T12:45:10;0.30;;;0.30;;
41057;SDS011;66768;48.884;2.258;2023-03-17T12:48:00;0.30;;;0.30;;
41057;SDS011;66768;48.884;2.258;2023-03-17T12:51:01;0.30;;;0.30;;
41057;SDS011;66768;48.884;2.258;2023-03-17T12:53:49;0.22;;;0.22;;
41057;SDS011;66768;48.884;2.258;2023-03-17T12:56:17;0.30;;;0.30;;
41057;SDS011;66768;48.884;2.258;2023-03-17T12:58:47;0.30;;;0.30;;
41057;SDS011;66768;48.884;2.258;2023-03-17T13:01:19;0.20;;;0.20;;
41057;SDS011;66768;48.884;2.258;2023-03-17T13:03:57;0.30;;;0.30;;
41057;SDS011;66768;48.884;2.258;2023-03-17T13:06:31;0.25;;;0.25;;
41057;SDS011;66768;48.884;2.258;2023-03-17T13:11:58;0.30;;;0.30;;
41057;SDS011;66768;48.884;2.258;2023-03-17T13:14:37;0.30;;;0.30;;
41057;SDS011;66768;48.884;2.258;2023-03-17T13:20:08;0.35;;;0.35;;
41057;SDS011;66768;48.884;2.258;2023-03-17T13:22:40;0.30;;;0.30;;
41057;SDS011;66768;48.884;2.258;2023-03-17T13:28:21;0.30;;;0.30;;
41057;SDS011;66768;48.884;2.258;2023-03-17T13:30:55;0.30;;;0.30;;
41057;SDS011;66768;48.884;2.258;2023-03-17T13:33:34;0.30;;;0.30;;
41057;SDS011;66768;48.884;2.258;2023-03-17T13:36:19;0.30;;;0.30;;
41057;SDS011;66768;48.884;2.258;2023-03-17T13:38:55;0.30;;;0.30;;
41057;SDS011;66768;48.884;2.258;2023-03-17T13:41:48;0.30;;;0.30;;
41057;SDS011;66768;48.884;2.258;2023-03-17T13:44:32;0.30;;;0.30;;
41057;SDS011;66768;48.884;2.258;2023-03-17T13:47:26;0.30;;;0.30;;
41057;SDS011;66768;48.884;2.258;2023-03-17T13:50:00;0.30;;;0.30;;
41057;SDS011;66768;48.884;2.258;2023-03-17T13:52:32;0.20;;;0.20;;
41057;SDS011;66768;48.884;2.258;2023-03-17T14:00:47;0.30;;;0.30;;
41057;SDS011;66768;48.884;2.258;2023-03-17T14:03:26;0.25;;;0.25;;
41057;SDS011;66768;48.884;2.258;2023-03-17T14:05:59;0.30;;;0.30;;
41057;SDS011;66768;48.884;2.258;2023-03-17T14:08:30;0.30;;;0.30;;
41057;SDS011;66768;48.884;2.258;2023-03-17T14:11:00;0.20;;;0.20;;
41057;SDS011;66768;48.884;2.258;2023-03-17T14:13:34;0.20;;;0.20;;
41057;SDS011;66768;48.884;2.258;2023-03-17T14:16:05;0.30;;;0.30;;
41057;SDS011;66768;48.884;2.258;2023-03-17T14:18:40;0.30;;;0.30;;
41057;SDS011;66768;48.884;2.258;2023-03-17T14:21:18;0.30;;;0.30;;
41057;SDS011;66768;48.884;2.258;2023-03-17T14:26:21;0.20;;;0.20;;
41057;SDS011;66768;48.884;2.258;2023-03-17T14:28:50;0.20;;;0.20;;
41057;SDS011;66768;48.884;2.258;2023-03-17T14:31:19;0.20;;;0.20;;
41057;SDS011;66768;48.884;2.258;2023-03-17T14:33:49;0.30;;;0.30;;
41057;SDS011;66768;48.884;2.258;2023-03-17T14:36:19;0.20;;;0.20;;
41057;SDS011;66768;48.884;2.258;2023-03-17T14:38:47;0.30;;;0.30;;
41057;SDS011;66768;48.884;2.258;2023-03-17T14:41:16;0.30;;;0.30;;
41057;SDS011;66768;48.884;2.258;2023-03-17T14:43:44;0.20;;;0.20;;
41057;SDS011;66768;48.884;2.258;2023-03-17T14:46:13;0.30;;;0.30;;
41057;SDS011;66768;48.884;2.258;2023-03-17T14:48:42;0.30;;;0.30;;
41057;SDS011;66768;48.884;2.258;2023-03-17T14:51:15;0.20;;;0.20;;
41057;SDS011;66768;48.884;2.258;2023-03-17T14:53:50;0.28;;;0.28;;
41057;SDS011;66768;48.884;2.258;2023-03-17T14:56:20;0.30;;;0.30;;
41057;SDS011;66768;48.884;2.258;2023-03-17T14:58:48;0.30;;;0.30;;
41057;SDS011;66768;48.884;2.258;2023-03-17T15:01:21;0.30;;;0.30;;
41057;SDS011;66768;48.884;2.258;2023-03-17T15:04:03;0.22;;;0.22;;
41057;SDS011;66768;48.884;2.258;2023-03-17T15:06:32;0.30;;;0.30;;
41057;SDS011;66768;48.884;2.258;2023-03-17T15:09:00;0.20;;;0.20;;
41057;SDS011;66768;48.884;2.258;2023-03-17T15:11:35;0.20;;;0.20;;
41057;SDS011;66768;48.884;2.258;2023-03-17T15:14:04;0.28;;;0.28;;
41057;SDS011;66768;48.884;2.258;2023-03-17T15:16:39;0.20;;;0.20;;
41057;SDS011;66768;48.884;2.258;2023-03-17T15:19:07;0.20;;;0.20;;
41057;SDS011;66768;48.884;2.258;2023-03-17T15:21:45;0.30;;;0.30;;
41057;SDS011;66768;48.884;2.258;2023-03-17T15:24:23;0.20;;;0.20;;